Time;durP1;ratioP1;P1;durP2;ratioP2;P2;SDS_P1;SDS_P2;PMS_P1;PMS_P2;Temp;Humidity;BMP_temperature;BMP_pressure;BME280_temperature;BME280_humidity;BME280_pressure;Samples;Min_cycle;Max_cycle;Signal;HPM_P1;HPM_P2
2023/05/24 00:01:41;;;;;;;32.92;9.55;;;9.10;99.90;;;;;;5070361;28;20028;-76
2023/05/24 00:04:09;;;;;;;26.92;9.00;;;9.00;99.90;;;;;;5068317;28;20086;-75
2023/05/24 00:06:36;;;;;;;24.17;7.40;;;9.00;99.90;;;;;;5064127;28;20028;-73
2023/05/24 00:09:02;;;;;;;25.02;7.53;;;9.00;99.90;;;;;;5072938;28;20028;-73
2023/05/24 00:11:27;;;;;;;27.20;6.20;;;9.00;99.90;;;;;;5059442;28;20121;-74
2023/05/24 00:13:53;;;;;;;26.08;9.30;;;9.00;99.90;;;;;;5058571;28;20086;-74
2023/05/24 00:16:18;;;;;;;26.38;7.88;;;8.90;99.90;;;;;;5065286;28;20021;-72
2023/05/24 00:18:45;;;;;;;27.75;9.45;;;8.90;99.90;;;;;;5064685;28;20040;-73
2023/05/24 00:21:12;;;;;;;25.15;7.88;;;8.90;99.90;;;;;;5063813;28;20055;-73
2023/05/24 00:23:38;;;;;;;20.77;7.32;;;8.90;99.90;;;;;;5039174;28;20119;-74
2023/05/24 00:26:04;;;;;;;22.42;7.88;;;8.90;99.90;;;;;;5066966;28;20452;-74
2023/05/24 00:28:31;;;;;;;27.35;9.07;;;8.90;99.90;;;;;;5062494;28;20038;-74
2023/05/24 00:30:59;;;;;;;28.95;9.38;;;8.90;99.90;;;;;;5072839;28;20076;-73
2023/05/24 00:33:26;;;;;;;42.67;16.40;;;8.90;99.90;;;;;;5056804;28;20025;-73
2023/05/24 00:35:55;;;;;;;25.08;7.85;;;8.90;99.90;;;;;;5069458;28;20028;-73
2023/05/24 00:38:28;;;;;;;33.72;12.85;;;8.90;99.90;;;;;;5064698;28;20021;-76
2023/05/24 00:40:58;;;;;;;34.45;11.00;;;8.90;99.90;;;;;;5061615;28;20108;-74
2023/05/24 00:43:24;;;;;;;26.40;7.25;;;8.90;99.90;;;;;;5060528;28;20376;-73
2023/05/24 00:46:26;;;;;;;25.60;8.00;;;8.90;99.90;;;;;;5060278;28;20088;-74
2023/05/24 00:48:52;;;;;;;22.48;6.75;;;8.90;99.90;;;;;;5046713;28;20740;-73
2023/05/24 00:51:18;;;;;;;30.92;11.18;;;8.90;99.90;;;;;;5061713;28;20155;-74
2023/05/24 00:53:47;;;;;;;39.55;13.95;;;8.90;99.90;;;;;;5059521;28;20437;-73
2023/05/24 00:56:14;;;;;;;22.80;8.50;;;8.90;99.90;;;;;;5060309;28;20051;-75
2023/05/24 00:58:40;;;;;;;25.15;8.00;;;8.90;99.90;;;;;;5043102;28;20099;-73
2023/05/24 01:01:05;;;;;;;24.05;7.25;;;8.80;99.90;;;;;;5061166;28;20033;-75
2023/05/24 01:03:32;;;;;;;25.80;7.10;;;8.80;99.90;;;;;;5061291;28;20116;-73
2023/05/24 01:06:01;;;;;;;28.20;9.23;;;8.80;99.90;;;;;;5061126;28;20477;-73
2023/05/24 01:08:39;;;;;;;28.92;7.78;;;8.80;99.90;;;;;;5060729;28;20039;-74
2023/05/24 01:11:26;;;;;;;28.35;8.60;;;8.80;99.90;;;;;;5068091;28;20393;-76
2023/05/24 01:14:13;;;;;;;25.50;6.07;;;8.80;99.90;;;;;;5062282;28;20048;-72
2023/05/24 01:16:48;;;;;;;28.70;9.35;;;8.80;99.90;;;;;;5046290;28;20037;-73
2023/05/24 01:19:48;;;;;;;27.40;7.30;;;8.80;99.90;;;;;;5060645;28;20032;-77
2023/05/24 01:22:30;;;;;;;27.00;7.68;;;8.80;99.90;;;;;;5007446;28;20033;-77
2023/05/24 01:25:09;;;;;;;27.20;7.53;;;8.70;99.90;;;;;;5043066;28;20025;-74
2023/05/24 01:27:37;;;;;;;28.08;6.68;;;8.70;99.90;;;;;;5060655;28;20021;-73
2023/05/24 01:30:03;;;;;;;26.85;7.05;;;8.80;99.90;;;;;;5063283;28;20516;-74
2023/05/24 01:32:29;;;;;;;25.98;7.65;;;8.80;99.90;;;;;;5056064;28;20033;-74
2023/05/24 01:34:55;;;;;;;28.42;7.63;;;8.80;99.90;;;;;;5056951;28;20048;-73
2023/05/24 01:37:21;;;;;;;26.65;7.40;;;8.80;99.90;;;;;;5057559;28;20384;-73
2023/05/24 01:39:48;;;;;;;39.10;11.65;;;8.90;99.90;;;;;;5059756;28;20032;-73
2023/05/24 01:42:41;;;;;;;24.42;6.78;;;8.90;99.90;;;;;;5061176;28;20022;-74
2023/05/24 01:45:30;;;;;;;25.33;8.02;;;8.90;99.90;;;;;;5062894;28;20032;-76
2023/05/24 01:48:17;;;;;;;30.20;7.43;;;8.90;99.90;;;;;;5058350;28;20358;-75
2023/05/24 01:50:52;;;;;;;30.45;10.57;;;8.90;99.90;;;;;;5057897;28;20422;-72
2023/05/24 01:53:19;;;;;;;25.83;8.00;;;8.90;99.90;;;;;;5061694;28;20029;-72
2023/05/24 01:55:48;;;;;;;32.50;10.07;;;8.90;99.90;;;;;;5066510;28;20115;-72
2023/05/24 01:58:15;;;;;;;29.25;9.13;;;8.90;99.90;;;;;;5055358;28;20078;-73
2023/05/24 02:00:43;;;;;;;26.65;6.90;;;8.90;99.90;;;;;;5066802;28;20036;-72
2023/05/24 02:03:09;;;;;;;24.55;7.40;;;8.90;99.90;;;;;;5066703;28;20433;-73
2023/05/24 02:05:35;;;;;;;29.38;9.23;;;9.00;99.90;;;;;;5068281;28;20028;-73
2023/05/24 02:08:00;;;;;;;29.55;9.73;;;8.90;99.90;;;;;;5070821;28;20013;-72
2023/05/24 02:10:26;;;;;;;32.47;10.50;;;9.00;99.90;;;;;;5070706;28;20484;-73
2023/05/24 02:12:51;;;;;;;22.58;8.32;;;8.90;99.90;;;;;;5075803;28;20403;-74
2023/05/24 02:15:17;;;;;;;26.52;8.65;;;8.90;99.90;;;;;;5068630;28;20103;-73
2023/05/24 02:17:42;;;;;;;26.30;8.23;;;8.90;99.90;;;;;;5065582;28;20028;-72
2023/05/24 02:20:08;;;;;;;30.27;9.18;;;8.90;99.90;;;;;;5073571;28;20024;-72
2023/05/24 02:22:34;;;;;;;25.95;8.07;;;8.90;99.90;;;;;;5071586;28;20128;-72
2023/05/24 02:25:00;;;;;;;25.77;7.65;;;8.90;99.90;;;;;;5064098;28;20439;-75
2023/05/24 02:27:25;;;;;;;23.80;6.32;;;8.90;99.90;;;;;;5064121;28;20025;-73
2023/05/24 02:29:51;;;;;;;28.45;7.22;;;8.90;99.90;;;;;;5071103;28;20472;-73
2023/05/24 02:32:17;;;;;;;26.27;7.50;;;8.90;99.90;;;;;;5059080;28;20017;-73
2023/05/24 02:34:43;;;;;;;21.60;6.78;;;8.90;99.90;;;;;;5074334;28;20031;-75
2023/05/24 02:37:13;;;;;;;24.38;6.53;;;8.90;99.90;;;;;;5068427;28;20032;-72
2023/05/24 02:39:40;;;;;;;34.95;7.32;;;8.90;99.90;;;;;;5082353;28;20055;-71
2023/05/24 02:42:07;;;;;;;27.52;8.30;;;8.90;99.90;;;;;;5074928;28;20028;-72
2023/05/24 02:44:33;;;;;;;26.92;7.70;;;8.90;99.90;;;;;;5060095;28;20025;-75
2023/05/24 02:46:58;;;;;;;26.42;6.80;;;8.90;99.90;;;;;;5049779;28;20028;-75
2023/05/24 02:49:24;;;;;;;20.95;6.57;;;8.90;99.90;;;;;;5067256;28;20032;-73
2023/05/24 02:51:50;;;;;;;26.88;7.47;;;8.90;99.90;;;;;;5061052;28;20029;-73
2023/05/24 02:54:16;;;;;;;27.83;7.13;;;8.90;99.90;;;;;;5051661;28;20027;-72
2023/05/24 02:56:42;;;;;;;28.20;7.63;;;8.90;99.90;;;;;;5069637;28;20032;-72
2023/05/24 02:59:07;;;;;;;22.75;7.10;;;8.90;99.90;;;;;;5065100;28;20025;-71
2023/05/24 03:01:33;;;;;;;30.23;8.60;;;9.00;99.90;;;;;;5062234;28;20082;-75
2023/05/24 03:03:58;;;;;;;27.65;9.55;;;9.00;99.90;;;;;;5071564;28;20072;-76
2023/05/24 03:06:24;;;;;;;30.02;7.53;;;9.00;99.90;;;;;;5058235;28;20024;-77
2023/05/24 03:08:50;;;;;;;28.15;8.18;;;9.00;99.90;;;;;;5069128;28;20047;-73
2023/05/24 03:11:18;;;;;;;23.55;7.40;;;9.00;99.90;;;;;;5061720;28;20032;-74
2023/05/24 03:13:43;;;;;;;28.10;8.73;;;9.00;99.90;;;;;;5069191;28;20028;-72
2023/05/24 03:16:09;;;;;;;34.25;11.80;;;8.90;99.90;;;;;;5058014;28;20071;-72
2023/05/24 03:18:34;;;;;;;35.55;11.93;;;8.90;99.90;;;;;;5069442;28;20021;-72
2023/05/24 03:21:00;;;;;;;33.88;10.15;;;8.90;99.90;;;;;;5063162;28;20029;-75
2023/05/24 03:23:26;;;;;;;25.02;7.70;;;8.90;99.90;;;;;;5062982;28;20032;-74
2023/05/24 03:25:52;;;;;;;30.80;9.57;;;8.90;99.90;;;;;;5069243;28;20025;-72
2023/05/24 03:28:17;;;;;;;28.95;7.78;;;8.90;99.90;;;;;;5069110;28;20031;-72
2023/05/24 03:30:43;;;;;;;30.40;9.85;;;8.90;99.90;;;;;;5073754;28;20087;-75
2023/05/24 03:33:09;;;;;;;32.67;8.95;;;8.80;99.90;;;;;;5070398;28;20517;-74
2023/05/24 03:35:34;;;;;;;28.38;8.75;;;8.90;99.90;;;;;;5060511;28;20021;-72
2023/05/24 03:38:00;;;;;;;27.27;7.40;;;8.80;99.90;;;;;;5065108;28;20052;-73
2023/05/24 03:40:28;;;;;;;27.33;6.53;;;8.80;99.90;;;;;;5071148;28;20354;-72
2023/05/24 03:42:53;;;;;;;28.33;7.13;;;8.80;99.90;;;;;;5059838;28;20025;-73
2023/05/24 03:45:19;;;;;;;25.55;7.20;;;8.80;99.90;;;;;;5065463;28;20361;-72
2023/05/24 03:47:45;;;;;;;26.08;6.45;;;8.80;99.90;;;;;;5059484;28;20033;-76
2023/05/24 03:50:10;;;;;;;29.23;8.15;;;8.90;99.90;;;;;;5070487;28;20392;-74
2023/05/24 03:52:36;;;;;;;28.45;7.75;;;8.90;99.90;;;;;;5059132;28;20111;-73
2023/05/24 03:55:01;;;;;;;28.67;8.05;;;9.00;99.90;;;;;;5056773;28;20055;-72
2023/05/24 03:57:27;;;;;;;28.48;7.22;;;9.00;99.90;;;;;;5082234;28;20032;-72
2023/05/24 03:59:52;;;;;;;25.60;9.45;;;9.10;99.90;;;;;;5073707;28;20028;-73
2023/05/24 04:02:18;;;;;;;22.35;7.80;;;9.20;99.90;;;;;;5057619;28;20029;-73
2023/05/24 04:04:44;;;;;;;32.85;10.30;;;9.30;99.90;;;;;;5074479;28;20056;-69
2023/05/24 04:07:10;;;;;;;22.85;7.22;;;9.50;99.90;;;;;;5074695;28;20026;-73
2023/05/24 04:09:36;;;;;;;23.80;7.68;;;9.60;99.90;;;;;;5061054;28;20021;-74
2023/05/24 04:12:02;;;;;;;22.23;6.85;;;9.60;99.90;;;;;;5068991;28;20028;-73
2023/05/24 04:14:27;;;;;;;25.40;6.30;;;9.70;99.90;;;;;;5082545;28;20028;-74
2023/05/24 04:16:53;;;;;;;27.30;7.90;;;9.80;99.90;;;;;;5073697;28;20033;-74
2023/05/24 04:19:19;;;;;;;25.77;6.05;;;9.90;99.90;;;;;;5062799;28;20029;-75
2023/05/24 04:21:45;;;;;;;25.17;8.50;;;9.90;99.90;;;;;;5057137;28;20029;-72
2023/05/24 04:24:11;;;;;;;23.00;7.25;;;10.10;99.90;;;;;;5071313;28;20374;-71
2023/05/24 04:26:36;;;;;;;25.15;7.28;;;10.10;99.90;;;;;;5059513;28;20031;-71
2023/05/24 04:29:03;;;;;;;25.33;7.60;;;10.20;99.90;;;;;;5065163;28;20051;-72
2023/05/24 04:31:32;;;;;;;23.40;6.15;;;10.30;99.90;;;;;;5060386;28;20086;-72
2023/05/24 04:33:58;;;;;;;25.05;5.85;;;10.40;99.90;;;;;;5072826;28;20036;-73
2023/05/24 04:36:24;;;;;;;23.45;5.45;;;10.40;99.90;;;;;;5070184;28;20024;-77
2023/05/24 04:38:52;;;;;;;23.65;6.30;;;10.50;99.90;;;;;;5070304;28;20090;-75
2023/05/24 04:41:18;;;;;;;22.60;5.88;;;10.60;99.90;;;;;;5072147;28;20031;-77
2023/05/24 04:43:44;;;;;;;23.20;5.68;;;10.70;99.90;;;;;;5060517;28;20091;-71
2023/05/24 04:46:10;;;;;;;21.52;5.50;;;10.70;99.90;;;;;;5071370;28;20464;-72
2023/05/24 04:48:35;;;;;;;27.13;8.88;;;10.80;99.90;;;;;;5058558;28;20111;-73
2023/05/24 04:51:01;;;;;;;20.58;4.70;;;10.90;99.90;;;;;;5068595;28;20116;-73
2023/05/24 04:53:27;;;;;;;14.88;4.20;;;11.00;99.90;;;;;;5062682;28;20115;-76
2023/05/24 04:55:52;;;;;;;19.90;4.18;;;11.10;99.90;;;;;;5069743;28;20550;-72
2023/05/24 04:58:18;;;;;;;25.25;5.00;;;11.20;99.90;;;;;;5057010;28;20342;-73
2023/05/24 05:00:44;;;;;;;17.02;4.57;;;11.30;99.90;;;;;;5049918;28;20469;-72
2023/05/24 05:03:10;;;;;;;20.27;3.92;;;11.40;99.90;;;;;;5062844;28;20033;-73
2023/05/24 05:05:36;;;;;;;22.33;5.05;;;11.50;99.90;;;;;;5060470;28;20025;-73
2023/05/24 05:08:02;;;;;;;16.25;4.15;;;11.60;99.90;;;;;;5067575;28;20035;-75
2023/05/24 05:10:28;;;;;;;20.52;4.82;;;11.70;99.90;;;;;;5068940;28;20489;-73
2023/05/24 05:12:54;;;;;;;20.90;4.25;;;11.80;99.90;;;;;;5060700;28;20032;-77
2023/05/24 05:15:23;;;;;;;21.60;5.03;;;11.90;99.90;;;;;;5061791;28;20032;-73
2023/05/24 05:17:49;;;;;;;19.27;5.57;;;12.00;99.90;;;;;;5067550;28;20089;-72
2023/05/24 05:20:14;;;;;;;15.00;3.75;;;12.10;99.90;;;;;;5056040;28;20029;-73
2023/05/24 05:22:47;;;;;;;20.65;4.97;;;12.20;99.90;;;;;;5049367;28;20112;-72
2023/05/24 05:25:13;;;;;;;16.52;3.60;;;12.40;99.90;;;;;;5059172;28;20029;-73
2023/05/24 05:27:38;;;;;;;19.60;4.15;;;12.50;99.90;;;;;;5066659;28;20078;-72
2023/05/24 05:30:05;;;;;;;22.33;4.10;;;12.60;99.90;;;;;;5056643;28;20080;-71
2023/05/24 05:32:30;;;;;;;16.38;3.67;;;12.70;99.90;;;;;;5072743;28;20461;-72
2023/05/24 05:34:56;;;;;;;17.35;4.00;;;13.00;99.90;;;;;;5072073;28;20078;-73
2023/05/24 05:37:21;;;;;;;18.08;3.42;;;13.30;99.90;;;;;;5061499;28;20052;-72
2023/05/24 05:39:47;;;;;;;19.65;4.60;;;13.60;99.90;;;;;;5049380;28;20032;-73
2023/05/24 05:42:12;;;;;;;19.23;3.92;;;13.90;99.90;;;;;;5056358;28;20096;-72
2023/05/24 05:44:38;;;;;;;16.67;4.00;;;14.30;99.90;;;;;;5058090;28;20081;-72
2023/05/24 05:47:06;;;;;;;17.25;4.22;;;14.60;99.90;;;;;;5068179;28;20059;-75
2023/05/24 05:49:35;;;;;;;13.15;3.63;;;14.80;99.90;;;;;;5072338;28;20024;-73
2023/05/24 05:52:01;;;;;;;21.58;4.28;;;15.10;99.90;;;;;;5056147;28;20021;-72
2023/05/24 05:54:27;;;;;;;19.02;4.03;;;15.60;99.90;;;;;;5069005;28;20021;-72
2023/05/24 05:56:52;;;;;;;18.85;3.88;;;16.10;99.90;;;;;;5053278;28;20167;-73
2023/05/24 05:59:18;;;;;;;14.93;4.03;;;16.40;99.90;;;;;;5052676;28;20104;-73
2023/05/24 06:01:47;;;;;;;16.30;2.95;;;16.40;99.90;;;;;;5066757;28;20028;-74
2023/05/24 06:04:14;;;;;;;17.20;3.50;;;16.80;99.90;;;;;;5060838;28;20111;-74
2023/05/24 06:06:39;;;;;;;17.65;3.63;;;17.10;99.90;;;;;;5052251;28;20469;-73
2023/05/24 06:09:06;;;;;;;13.55;3.15;;;17.30;99.90;;;;;;5052276;28;20017;-75
2023/05/24 06:11:32;;;;;;;17.55;3.30;;;17.30;99.90;;;;;;5067894;28;20046;-74
2023/05/24 06:13:58;;;;;;;17.20;4.97;;;17.30;99.90;;;;;;5072269;28;20025;-73
2023/05/24 06:16:23;;;;;;;18.95;4.00;;;17.50;99.90;;;;;;5066710;28;20033;-73
2023/05/24 06:18:49;;;;;;;15.05;3.60;;;18.10;99.90;;;;;;5052460;28;20032;-75
2023/05/24 06:21:15;;;;;;;10.77;3.10;;;18.20;99.90;;;;;;5052504;28;20025;-73
2023/05/24 06:23:41;;;;;;;18.33;5.75;;;18.50;99.70;;;;;;5065935;28;20024;-75
2023/05/24 06:26:08;;;;;;;14.43;4.05;;;18.70;99.20;;;;;;5051829;28;20036;-73
2023/05/24 06:28:35;;;;;;;16.30;3.90;;;18.90;99.20;;;;;;5051411;28;20061;-73
2023/05/24 06:31:00;;;;;;;15.98;4.25;;;19.30;99.00;;;;;;5072373;28;20473;-72
2023/05/24 06:33:26;;;;;;;13.48;3.08;;;19.70;98.10;;;;;;5066848;28;20036;-73
2023/05/24 06:35:52;;;;;;;20.27;4.18;;;19.80;97.40;;;;;;5073045;28;20138;-75
2023/05/24 06:38:17;;;;;;;15.57;4.13;;;19.90;97.00;;;;;;5092417;28;20067;-74
2023/05/24 06:40:43;;;;;;;14.55;3.53;;;20.60;96.90;;;;;;5074465;28;20048;-78
2023/05/24 06:43:09;;;;;;;17.10;4.03;;;21.60;95.10;;;;;;5060085;28;20028;-73
2023/05/24 06:45:35;;;;;;;16.98;5.60;;;22.30;93.80;;;;;;5051623;28;20079;-77
2023/05/24 06:48:00;;;;;;;15.48;4.15;;;22.10;93.40;;;;;;5052264;28;20062;-75
2023/05/24 06:50:26;;;;;;;15.23;3.88;;;21.90;93.60;;;;;;5052566;28;20041;-77
2023/05/24 06:52:52;;;;;;;14.82;5.03;;;21.90;94.00;;;;;;5052395;28;20024;-76
2023/05/24 06:55:18;;;;;;;16.05;4.78;;;22.70;93.10;;;;;;5055438;28;20025;-73
2023/05/24 06:57:44;;;;;;;17.65;5.18;;;23.20;92.60;;;;;;5055484;28;20021;-76
2023/05/24 07:00:11;;;;;;;13.07;3.28;;;24.00;91.60;;;;;;5055920;28;20025;-73
2023/05/24 07:02:40;;;;;;;11.93;3.28;;;25.10;90.10;;;;;;5055658;28;20029;-74
2023/05/24 07:05:11;;;;;;;14.52;3.85;;;25.60;87.70;;;;;;5055427;28;20073;-76
2023/05/24 07:07:41;;;;;;;13.60;3.83;;;25.50;86.90;;;;;;5062915;28;20380;-74
2023/05/24 07:10:08;;;;;;;12.07;4.05;;;25.30;86.80;;;;;;5074704;28;20701;-75
2023/05/24 07:12:33;;;;;;;11.25;3.55;;;25.60;86.70;;;;;;5075217;28;20076;-73
2023/05/24 07:14:59;;;;;;;11.90;3.53;;;26.10;85.30;;;;;;5074799;28;20106;-73
2023/05/24 07:17:25;;;;;;;11.13;3.42;;;26.40;84.20;;;;;;5075270;28;20164;-74
2023/05/24 07:19:50;;;;;;;14.80;4.30;;;26.90;83.50;;;;;;5069385;28;20029;-75
2023/05/24 07:22:16;;;;;;;15.45;5.40;;;27.20;82.90;;;;;;5040491;28;20032;-74
2023/05/24 07:24:41;;;;;;;13.20;4.35;;;27.30;81.50;;;;;;5060638;28;20545;-75
2023/05/24 07:27:08;;;;;;;19.40;6.88;;;26.50;81.80;;;;;;5056848;28;20037;-76
2023/05/24 07:29:33;;;;;;;19.60;8.57;;;25.40;84.10;;;;;;5059717;28;20408;-75
2023/05/24 07:31:59;;;;;;;13.32;4.60;;;25.00;83.70;;;;;;5063756;28;20043;-75
2023/05/24 07:34:28;;;;;;;17.98;4.82;;;24.60;84.20;;;;;;5064058;28;20020;-73
2023/05/24 07:36:55;;;;;;;17.40;5.35;;;24.10;84.90;;;;;;5059855;28;20755;-73
2023/05/24 07:39:21;;;;;;;16.30;3.97;;;23.20;86.50;;;;;;5054822;28;20024;-73
2023/05/24 07:41:46;;;;;;;12.93;3.03;;;22.40;88.50;;;;;;5069013;28;20020;-72
2023/05/24 07:44:13;;;;;;;15.95;4.43;;;22.30;87.90;;;;;;5060200;28;20036;-76
2023/05/24 07:46:39;;;;;;;18.55;4.25;;;22.30;88.70;;;;;;5040771;28;20025;-77
2023/05/24 07:49:04;;;;;;;8.27;2.80;;;22.30;87.70;;;;;;5066948;28;20087;-72
2023/05/24 07:51:31;;;;;;;13.38;2.75;;;22.30;86.20;;;;;;5072682;28;20044;-76
2023/05/24 07:53:57;;;;;;;14.98;3.10;;;22.00;87.30;;;;;;5041218;28;20082;-74
2023/05/24 07:56:23;;;;;;;15.68;3.97;;;21.90;89.00;;;;;;5059028;28;20044;-74
2023/05/24 07:58:50;;;;;;;17.83;4.40;;;22.10;89.80;;;;;;5056124;28;20028;-75
2023/05/24 08:01:17;;;;;;;10.90;3.08;;;22.30;89.50;;;;;;5041263;28;20037;-75
2023/05/24 08:03:44;;;;;;;12.02;3.45;;;22.30;89.30;;;;;;5057646;28;20060;-74
2023/05/24 08:06:10;;;;;;;14.32;2.83;;;22.10;87.90;;;;;;5059164;28;20021;-74
2023/05/24 08:08:36;;;;;;;13.45;3.55;;;22.10;88.20;;;;;;5054715;28;20025;-74
2023/05/24 08:11:01;;;;;;;13.32;4.28;;;22.30;87.20;;;;;;5054328;28;20120;-74
2023/05/24 08:13:27;;;;;;;12.00;3.58;;;22.60;87.40;;;;;;5054170;28;20374;-75
2023/05/24 08:15:52;;;;;;;13.65;3.63;;;23.30;87.50;;;;;;5056162;28;20368;-74
2023/05/24 08:18:18;;;;;;;14.02;4.20;;;24.20;86.20;;;;;;5053823;28;20473;-75
2023/05/24 08:20:43;;;;;;;12.32;3.22;;;25.00;84.40;;;;;;5054116;28;20524;-75
2023/05/24 08:23:09;;;;;;;16.13;3.95;;;25.70;83.60;;;;;;5053697;28;20500;-74
2023/05/24 08:25:35;;;;;;;15.30;3.83;;;27.00;82.10;;;;;;5060858;28;20020;-74
2023/05/24 08:28:00;;;;;;;11.68;3.13;;;28.30;80.20;;;;;;5073499;28;20103;-74
2023/05/24 08:30:26;;;;;;;13.02;3.63;;;29.00;77.50;;;;;;5060899;28;20052;-75
2023/05/24 08:32:52;;;;;;;15.32;3.50;;;29.40;75.30;;;;;;5070351;28;20097;-74
2023/05/24 08:35:17;;;;;;;17.77;4.47;;;30.30;74.50;;;;;;5065252;28;20033;-74
2023/05/24 08:37:43;;;;;;;13.90;3.47;;;31.30;73.70;;;;;;5073515;28;20452;-74
2023/05/24 08:40:08;;;;;;;14.35;3.15;;;31.80;71.60;;;;;;5073125;28;20024;-74
2023/05/24 08:42:36;;;;;;;16.08;4.13;;;31.90;70.50;;;;;;5052728;28;20025;-74
2023/05/24 08:45:08;;;;;;;11.30;3.50;;;32.40;70.00;;;;;;5072266;28;20373;-74
2023/05/24 08:47:35;;;;;;;11.98;3.17;;;33.10;68.60;;;;;;5035573;28;20031;-74
2023/05/24 08:50:02;;;;;;;11.93;2.75;;;33.40;68.00;;;;;;5053434;28;20037;-74
2023/05/24 08:52:30;;;;;;;11.57;3.17;;;33.40;66.80;;;;;;5053550;28;20029;-73
2023/05/24 08:54:58;;;;;;;11.63;3.05;;;32.60;66.80;;;;;;5053766;28;20028;-74
2023/05/24 08:57:29;;;;;;;11.27;3.38;;;32.20;67.40;;;;;;5071781;28;20034;-74
2023/05/24 08:59:55;;;;;;;14.98;3.40;;;32.60;66.30;;;;;;5072974;28;20520;-74
2023/05/24 09:02:22;;;;;;;11.52;3.97;;;32.60;66.10;;;;;;5069277;28;20032;-74
2023/05/24 09:04:49;;;;;;;14.18;3.45;;;31.80;66.20;;;;;;5066011;28;20063;-74
2023/05/24 09:07:19;;;;;;;13.38;3.30;;;31.20;67.00;;;;;;5073154;28;20028;-74
2023/05/24 09:09:49;;;;;;;15.23;3.80;;;31.20;67.40;;;;;;5072990;28;20365;-74
2023/05/24 09:12:17;;;;;;;11.32;3.35;;;31.20;67.00;;;;;;5072955;28;20472;-74
2023/05/24 09:14:45;;;;;;;12.50;3.40;;;31.00;67.00;;;;;;5067335;28;20036;-74
2023/05/24 09:17:15;;;;;;;11.73;3.53;;;31.30;66.70;;;;;;5063749;28;20051;-75
2023/05/24 09:19:48;;;;;;;11.18;3.00;;;32.00;65.80;;;;;;5072124;28;20025;-79
2023/05/24 09:22:15;;;;;;;12.18;3.50;;;31.80;65.10;;;;;;5071391;28;20085;-75
2023/05/24 09:24:42;;;;;;;14.00;3.85;;;31.40;65.80;;;;;;5072603;28;20031;-76
2023/05/24 09:27:13;;;;;;;12.77;3.33;;;31.70;65.30;;;;;;5053411;28;20037;-77
2023/05/24 09:29:40;;;;;;;11.85;3.35;;;32.30;64.20;;;;;;5052494;28;20048;-76
2023/05/24 09:32:07;;;;;;;15.88;3.97;;;33.00;63.70;;;;;;5069801;28;20035;-73
2023/05/24 09:34:40;;;;;;;16.55;5.10;;;33.60;63.30;;;;;;5078300;28;20032;-73
2023/05/24 09:37:20;;;;;;;17.17;4.13;;;33.90;63.10;;;;;;5072252;28;20409;-76
2023/05/24 09:39:47;;;;;;;15.57;3.90;;;34.20;62.50;;;;;;5055463;28;20033;-75
2023/05/24 09:42:23;;;;;;;12.07;3.50;;;34.60;61.90;;;;;;5055566;28;20024;-74
2023/05/24 09:45:09;;;;;;;14.70;4.13;;;35.10;60.90;;;;;;5063973;28;20039;-74
2023/05/24 09:47:40;;;;;;;11.70;3.00;;;35.40;61.00;;;;;;5048852;28;20028;-78
2023/05/24 09:50:16;;;;;;;13.05;3.80;;;34.80;61.30;;;;;;5062928;28;20036;-74
2023/05/24 09:52:44;;;;;;;13.13;3.70;;;34.40;61.70;;;;;;5070019;28;20032;-76
2023/05/24 09:55:14;;;;;;;14.80;3.00;;;34.70;61.20;;;;;;5071009;28;20082;-74
2023/05/24 09:57:40;;;;;;;11.48;3.40;;;34.20;60.70;;;;;;5067679;28;20025;-73
2023/05/24 10:00:13;;;;;;;9.82;3.10;;;33.90;61.00;;;;;;5040480;28;20372;-74
2023/05/24 10:02:40;;;;;;;14.07;3.22;;;33.80;61.40;;;;;;5052483;28;20370;-75
2023/05/24 10:05:09;;;;;;;14.55;3.30;;;34.30;60.90;;;;;;5062630;28;20107;-74
2023/05/24 10:07:35;;;;;;;10.50;2.72;;;34.60;60.30;;;;;;5071450;28;20757;-76
2023/05/24 10:10:03;;;;;;;13.50;2.72;;;34.20;60.00;;;;;;5053058;28;20086;-77
2023/05/24 10:12:30;;;;;;;15.55;3.33;;;33.60;61.10;;;;;;5052554;28;20036;-76
2023/05/24 10:14:56;;;;;;;13.95;3.30;;;33.70;60.80;;;;;;5071633;28;20029;-73
2023/05/24 10:17:22;;;;;;;14.38;3.95;;;33.80;60.30;;;;;;5064112;28;20435;-75
2023/05/24 10:19:48;;;;;;;17.25;3.40;;;33.40;60.30;;;;;;5049742;28;20127;-74
2023/05/24 10:22:15;;;;;;;11.13;3.13;;;33.10;61.20;;;;;;5055128;28;20409;-74
2023/05/24 10:24:47;;;;;;;16.17;3.40;;;33.10;60.90;;;;;;5071466;28;20080;-73
2023/05/24 10:27:16;;;;;;;9.27;3.10;;;33.10;60.80;;;;;;5068604;28;20029;-77
2023/05/24 10:30:00;;;;;;;13.57;3.97;;;32.90;60.50;;;;;;5074012;28;20053;-74
2023/05/24 10:32:30;;;;;;;10.40;3.10;;;32.40;61.10;;;;;;5060560;28;20028;-76
2023/05/24 10:34:58;;;;;;;12.45;3.00;;;31.60;61.90;;;;;;5073006;28;20086;-76
2023/05/24 10:37:25;;;;;;;12.15;3.15;;;31.40;62.00;;;;;;5072651;28;20464;-73
2023/05/24 10:39:51;;;;;;;12.02;3.03;;;30.80;62.30;;;;;;5074387;28;20028;-76
2023/05/24 10:42:17;;;;;;;16.17;3.45;;;30.00;63.00;;;;;;5071651;28;21003;-75
2023/05/24 10:44:43;;;;;;;14.05;3.38;;;29.20;64.50;;;;;;5045019;28;20487;-73
2023/05/24 10:47:18;;;;;;;10.32;3.08;;;29.40;64.70;;;;;;5067993;28;20039;-73
2023/05/24 10:49:56;;;;;;;12.60;3.33;;;30.60;63.70;;;;;;5059622;28;20029;-76
2023/05/24 10:52:34;;;;;;;12.13;3.22;;;31.60;61.70;;;;;;5060175;28;20036;-74
2023/05/24 10:55:07;;;;;;;11.85;3.30;;;31.30;62.30;;;;;;5065743;28;20095;-73
2023/05/24 10:57:33;;;;;;;14.00;3.25;;;30.60;63.10;;;;;;5069899;28;20036;-73
2023/05/24 11:00:27;;;;;;;15.70;3.42;;;29.80;63.50;;;;;;5061711;28;20029;-72
2023/05/24 11:03:02;;;;;;;16.13;3.35;;;28.60;64.80;;;;;;5066220;28;20036;-77
2023/05/24 11:05:33;;;;;;;15.38;2.95;;;27.90;65.80;;;;;;5068639;28;20383;-74
2023/05/24 11:08:00;;;;;;;11.25;3.75;;;27.30;66.40;;;;;;5058343;28;20041;-73
2023/05/24 11:10:30;;;;;;;15.88;3.25;;;26.70;67.30;;;;;;5074742;28;20021;-73
2023/05/24 11:13:01;;;;;;;11.95;3.10;;;26.40;68.00;;;;;;5065363;28;20075;-74
2023/05/24 11:15:28;;;;;;;13.50;3.50;;;26.30;68.50;;;;;;5068663;28;20032;-74
2023/05/24 11:18:11;;;;;;;14.73;3.67;;;26.30;69.10;;;;;;5072822;28;20541;-76
2023/05/24 11:20:37;;;;;;;16.50;3.15;;;27.40;68.10;;;;;;5068696;28;20060;-72
2023/05/24 11:23:03;;;;;;;15.32;3.33;;;28.50;67.00;;;;;;5064161;28;20060;-72
2023/05/24 11:25:29;;;;;;;11.57;3.05;;;29.80;65.00;;;;;;5072072;28;20028;-76
2023/05/24 11:27:59;;;;;;;13.70;3.35;;;30.90;63.90;;;;;;5067988;28;20043;-75
2023/05/24 11:30:25;;;;;;;13.80;3.00;;;31.90;63.00;;;;;;5065717;28;20097;-75
2023/05/24 11:32:51;;;;;;;15.15;3.75;;;32.40;62.30;;;;;;5066487;28;20029;-74
2023/05/24 11:35:18;;;;;;;11.77;3.13;;;33.20;61.00;;;;;;5055134;28;20032;-74
2023/05/24 11:37:44;;;;;;;13.70;3.40;;;33.20;60.60;;;;;;5060163;28;20024;-72
2023/05/24 11:40:10;;;;;;;12.63;3.15;;;32.50;61.00;;;;;;5048727;28;20032;-73
2023/05/24 11:42:37;;;;;;;14.30;3.40;;;31.60;61.90;;;;;;5059101;28;20036;-73
2023/05/24 11:45:05;;;;;;;12.35;3.83;;;30.80;62.50;;;;;;5055338;28;20483;-75
2023/05/24 11:47:35;;;;;;;13.30;3.40;;;30.10;63.20;;;;;;5063489;28;20473;-73
2023/05/24 11:50:01;;;;;;;14.40;3.58;;;29.50;63.90;;;;;;5065931;28;20339;-74
2023/05/24 11:52:26;;;;;;;13.77;3.25;;;29.40;63.80;;;;;;5063961;28;20473;-72
2023/05/24 11:54:53;;;;;;;13.98;3.70;;;29.50;63.70;;;;;;5068436;28;20083;-72
2023/05/24 11:57:28;;;;;;;16.80;3.30;;;29.20;64.40;;;;;;5073862;28;20028;-73
2023/05/24 11:59:54;;;;;;;10.50;2.97;;;28.70;64.80;;;;;;5059125;28;20017;-75
2023/05/24 12:02:19;;;;;;;9.98;2.33;;;28.40;64.90;;;;;;5054911;28;20020;-72
2023/05/24 12:04:46;;;;;;;8.98;2.55;;;27.40;65.90;;;;;;5074317;28;20027;-74
2023/05/24 12:07:11;;;;;;;14.68;3.10;;;26.40;67.40;;;;;;5067428;28;20104;-75
2023/05/24 12:09:37;;;;;;;11.88;3.97;;;25.50;68.70;;;;;;5060146;28;20033;-76
2023/05/24 12:12:03;;;;;;;13.75;4.07;;;25.00;69.50;;;;;;5065360;28;20487;-72
2023/05/24 12:14:32;;;;;;;14.52;3.65;;;24.50;70.50;;;;;;5061026;28;20055;-75
2023/05/24 12:16:58;;;;;;;21.65;5.43;;;24.10;71.40;;;;;;5074373;28;20024;-72
2023/05/24 12:19:25;;;;;;;15.35;4.30;;;23.70;72.30;;;;;;5074102;28;20036;-76
2023/05/24 12:21:55;;;;;;;13.27;3.47;;;23.40;73.00;;;;;;5074431;28;20017;-73
2023/05/24 12:24:22;;;;;;;12.38;3.15;;;23.20;73.50;;;;;;5064831;28;20021;-75
2023/05/24 12:26:49;;;;;;;18.30;5.20;;;23.00;73.90;;;;;;5054072;28;20032;-72
2023/05/24 12:29:15;;;;;;;16.90;4.80;;;23.00;74.50;;;;;;5053756;28;20048;-72
2023/05/24 12:31:43;;;;;;;10.70;3.47;;;22.80;74.60;;;;;;5055230;28;20072;-73
2023/05/24 12:34:17;;;;;;;20.73;5.00;;;22.60;75.20;;;;;;5053707;28;20473;-73
2023/05/24 12:36:43;;;;;;;15.38;3.47;;;22.60;75.80;;;;;;5054162;28;20079;-72
2023/05/24 12:39:17;;;;;;;13.65;3.83;;;22.40;77.00;;;;;;5053594;28;20047;-72
2023/05/24 12:41:43;;;;;;;16.27;3.95;;;22.20;76.80;;;;;;5054865;28;20112;-72
2023/05/24 12:44:12;;;;;;;15.95;3.78;;;22.00;77.50;;;;;;5065411;28;20501;-74